sensor_id;sensor_type;location;lat;lon;timestamp;P1;durP1;ratioP1;P2;durP2;ratioP2
15476;SDS011;7840;42.702;23.296;2023-03-12T09:32:32;4.40;;;2.50;;
15476;SDS011;7840;42.702;23.296;2023-03-12T09:35:16;2.90;;;2.60;;
15476;SDS011;7840;42.702;23.296;2023-03-12T09:38:25;3.97;;;2.70;;
15476;SDS011;7840;42.702;23.296;2023-03-12T09:40:59;2.60;;;2.27;;
15476;SDS011;7840;42.702;23.296;2023-03-12T09:43:28;2.77;;;2.50;;
15476;SDS011;7840;42.702;23.296;2023-03-12T09:46:01;4.37;;;2.83;;
15476;SDS011;7840;42.702;23.296;2023-03-12T09:48:44;3.10;;;2.43;;
15476;SDS011;7840;42.702;23.296;2023-03-12T09:51:16;2.70;;;2.40;;
15476;SDS011;7840;42.702;23.296;2023-03-12T09:53:54;2.53;;;2.23;;
15476;SDS011;7840;42.702;23.296;2023-03-12T09:56:22;2.70;;;2.33;;
15476;SDS011;7840;42.702;23.296;2023-03-12T09:58:50;4.20;;;2.83;;
15476;SDS011;7840;42.702;23.296;2023-03-12T10:04:08;3.10;;;2.50;;
15476;SDS011;7840;42.702;23.296;2023-03-12T10:06:42;2.70;;;2.30;;
15476;SDS011;7840;42.702;23.296;2023-03-12T10:09:15;7.50;;;2.40;;
15476;SDS011;7840;42.702;23.296;2023-03-12T10:11:48;2.70;;;2.40;;
15476;SDS011;7840;42.702;23.296;2023-03-12T10:14:28;3.20;;;2.60;;
15476;SDS011;7840;42.702;23.296;2023-03-12T10:17:15;2.33;;;2.03;;
15476;SDS011;7840;42.702;23.296;2023-03-12T10:19:49;2.57;;;2.37;;
15476;SDS011;7840;42.702;23.296;2023-03-12T10:22:21;3.40;;;2.50;;
15476;SDS011;7840;42.702;23.296;2023-03-12T10:24:54;2.37;;;2.13;;
15476;SDS011;7840;42.702;23.296;2023-03-12T10:27:23;2.90;;;2.13;;
15476;SDS011;7840;42.702;23.296;2023-03-12T10:30:20;3.23;;;2.30;;
15476;SDS011;7840;42.702;23.296;2023-03-12T10:32:49;2.83;;;2.33;;
15476;SDS011;7840;42.702;23.296;2023-03-12T10:35:23;2.63;;;2.43;;
15476;SDS011;7840;42.702;23.296;2023-03-12T10:37:53;2.40;;;2.20;;
15476;SDS011;7840;42.702;23.296;2023-03-12T10:40:22;2.73;;;2.37;;
15476;SDS011;7840;42.702;23.296;2023-03-12T10:43:04;3.23;;;2.00;;
15476;SDS011;7840;42.702;23.296;2023-03-12T10:45:36;2.93;;;1.83;;
15476;SDS011;7840;42.702;23.296;2023-03-12T10:48:05;2.40;;;2.20;;
15476;SDS011;7840;42.702;23.296;2023-03-12T10:50:39;2.40;;;2.20;;
15476;SDS011;7840;42.702;23.296;2023-03-12T10:53:17;3.67;;;2.30;;
15476;SDS011;7840;42.702;23.296;2023-03-12T10:55:56;2.97;;;2.20;;
15476;SDS011;7840;42.702;23.296;2023-03-12T10:58:24;3.03;;;2.20;;
15476;SDS011;7840;42.702;23.296;2023-03-12T11:00:53;2.57;;;2.30;;
15476;SDS011;7840;42.702;23.296;2023-03-12T11:03:22;5.30;;;2.40;;
15476;SDS011;7840;42.702;23.296;2023-03-12T11:06:00;2.60;;;1.93;;
15476;SDS011;7840;42.702;23.296;2023-03-12T11:08:34;2.53;;;2.20;;
15476;SDS011;7840;42.702;23.296;2023-03-12T11:11:03;2.30;;;2.10;;
15476;SDS011;7840;42.702;23.296;2023-03-12T11:13:42;2.97;;;2.00;;
15476;SDS011;7840;42.702;23.296;2023-03-12T11:16:23;2.30;;;2.10;;
15476;SDS011;7840;42.702;23.296;2023-03-12T11:19:11;1.90;;;1.80;;
15476;SDS011;7840;42.702;23.296;2023-03-12T11:21:55;3.47;;;1.90;;
15476;SDS011;7840;42.702;23.296;2023-03-12T11:24:39;1.93;;;1.83;;
15476;SDS011;7840;42.702;23.296;2023-03-12T11:27:23;3.43;;;2.00;;
15476;SDS011;7840;42.702;23.296;2023-03-12T11:30:21;1.93;;;1.80;;
15476;SDS011;7840;42.702;23.296;2023-03-12T11:32:52;2.00;;;1.77;;
15476;SDS011;7840;42.702;23.296;2023-03-12T11:35:25;2.00;;;1.80;;
15476;SDS011;7840;42.702;23.296;2023-03-12T11:37:58;2.63;;;1.93;;
15476;SDS011;7840;42.702;23.296;2023-03-12T11:40:30;2.80;;;2.33;;
15476;SDS011;7840;42.702;23.296;2023-03-12T11:43:08;3.53;;;2.23;;
15476;SDS011;7840;42.702;23.296;2023-03-12T11:45:42;5.27;;;2.20;;
15476;SDS011;7840;42.702;23.296;2023-03-12T11:48:16;2.70;;;2.23;;
15476;SDS011;7840;42.702;23.296;2023-03-12T11:50:51;2.10;;;1.90;;
15476;SDS011;7840;42.702;23.296;2023-03-12T11:53:31;2.20;;;2.00;;
15476;SDS011;7840;42.702;23.296;2023-03-12T11:56:10;2.47;;;2.00;;
15476;SDS011;7840;42.702;23.296;2023-03-12T12:01:24;1.60;;;1.50;;
15476;SDS011;7840;42.702;23.296;2023-03-12T12:04:00;2.40;;;1.90;;
15476;SDS011;7840;42.702;23.296;2023-03-12T12:06:31;2.93;;;2.20;;
15476;SDS011;7840;42.702;23.296;2023-03-12T12:15:01;2.63;;;2.30;;
15476;SDS011;7840;42.702;23.296;2023-03-12T12:17:50;3.33;;;2.37;;
15476;SDS011;7840;42.702;23.296;2023-03-12T12:20:26;2.40;;;2.07;;
15476;SDS011;7840;42.702;23.296;2023-03-12T12:22:58;2.30;;;2.10;;
15476;SDS011;7840;42.702;23.296;2023-03-12T12:25:29;4.13;;;2.30;;
15476;SDS011;7840;42.702;23.296;2023-03-12T12:28:02;3.10;;;1.80;;
15476;SDS011;7840;42.702;23.296;2023-03-12T12:33:07;3.10;;;2.40;;
15476;SDS011;7840;42.702;23.296;2023-03-12T12:35:36;2.20;;;2.00;;
15476;SDS011;7840;42.702;23.296;2023-03-12T12:38:06;2.87;;;2.03;;
15476;SDS011;7840;42.702;23.296;2023-03-12T12:40:37;2.03;;;1.93;;
15476;SDS011;7840;42.702;23.296;2023-03-12T12:43:15;2.40;;;2.20;;
15476;SDS011;7840;42.702;23.296;2023-03-12T12:46:05;2.30;;;2.10;;
15476;SDS011;7840;42.702;23.296;2023-03-12T12:48:42;3.63;;;1.77;;
15476;SDS011;7840;42.702;23.296;2023-03-12T12:51:23;3.00;;;2.10;;
15476;SDS011;7840;42.702;23.296;2023-03-12T12:53:58;3.00;;;2.13;;
15476;SDS011;7840;42.702;23.296;2023-03-12T12:56:45;3.30;;;2.00;;
15476;SDS011;7840;42.702;23.296;2023-03-12T12:59:25;2.53;;;2.03;;
15476;SDS011;7840;42.702;23.296;2023-03-12T13:01:56;3.37;;;2.50;;
15476;SDS011;7840;42.702;23.296;2023-03-12T13:04:26;2.33;;;2.13;;
15476;SDS011;7840;42.702;23.296;2023-03-12T13:06:56;3.40;;;1.97;;
15476;SDS011;7840;42.702;23.296;2023-03-12T13:09:33;2.13;;;1.97;;
15476;SDS011;7840;42.702;23.296;2023-03-12T13:12:12;2.40;;;2.00;;
15476;SDS011;7840;42.702;23.296;2023-03-12T13:14:40;2.00;;;1.80;;
15476;SDS011;7840;42.702;23.296;2023-03-12T13:17:18;2.20;;;2.00;;
15476;SDS011;7840;42.702;23.296;2023-03-12T13:19:47;2.50;;;2.30;;
15476;SDS011;7840;42.702;23.296;2023-03-12T13:22:18;3.30;;;1.80;;
15476;SDS011;7840;42.702;23.296;2023-03-12T13:24:49;2.17;;;1.97;;
15476;SDS011;7840;42.702;23.296;2023-03-12T13:27:20;2.47;;;1.90;;
15476;SDS011;7840;42.702;23.296;2023-03-12T13:29:49;2.30;;;1.80;;
15476;SDS011;7840;42.702;23.296;2023-03-12T13:35:31;2.50;;;1.90;;
15476;SDS011;7840;42.702;23.296;2023-03-12T13:38:00;2.10;;;1.90;;
15476;SDS011;7840;42.702;23.296;2023-03-12T13:43:30;3.70;;;2.10;;
15476;SDS011;7840;42.702;23.296;2023-03-12T13:45:59;4.37;;;3.30;;
15476;SDS011;7840;42.702;23.296;2023-03-12T13:48:29;2.57;;;2.37;;
15476;SDS011;7840;42.702;23.296;2023-03-12T13:51:10;2.07;;;1.90;;
15476;SDS011;7840;42.702;23.296;2023-03-12T13:53:41;3.17;;;2.40;;
15476;SDS011;7840;42.702;23.296;2023-03-12T13:56:16;3.10;;;2.30;;
15476;SDS011;7840;42.702;23.296;2023-03-12T13:58:47;2.10;;;1.90;;
15476;SDS011;7840;42.702;23.296;2023-03-12T14:01:35;2.40;;;1.93;;
15476;SDS011;7840;42.702;23.296;2023-03-12T14:04:04;2.13;;;1.93;;
15476;SDS011;7840;42.702;23.296;2023-03-12T14:06:34;2.20;;;2.00;;
15476;SDS011;7840;42.702;23.296;2023-03-12T14:09:10;2.15;;;1.95;;
15476;SDS011;7840;42.702;23.296;2023-03-12T14:11:53;3.33;;;2.20;;
15476;SDS011;7840;42.702;23.296;2023-03-12T14:14:31;2.15;;;2.00;;
15476;SDS011;7840;42.702;23.296;2023-03-12T14:17:12;2.73;;;1.53;;
15476;SDS011;7840;42.702;23.296;2023-03-12T14:19:42;2.20;;;1.77;;
15476;SDS011;7840;42.702;23.296;2023-03-12T14:22:12;2.05;;;1.85;;
15476;SDS011;7840;42.702;23.296;2023-03-12T14:24:40;1.80;;;1.70;;
15476;SDS011;7840;42.702;23.296;2023-03-12T14:27:16;2.55;;;2.35;;
15476;SDS011;7840;42.702;23.296;2023-03-12T14:29:46;2.25;;;1.95;;
15476;SDS011;7840;42.702;23.296;2023-03-12T14:32:18;3.67;;;1.92;;
15476;SDS011;7840;42.702;23.296;2023-03-12T14:34:46;2.47;;;1.95;;
15476;SDS011;7840;42.702;23.296;2023-03-12T14:37:18;2.20;;;2.00;;
15476;SDS011;7840;42.702;23.296;2023-03-12T14:39:48;3.97;;;3.25;;
15476;SDS011;7840;42.702;23.296;2023-03-12T14:42:19;2.10;;;1.85;;
15476;SDS011;7840;42.702;23.296;2023-03-12T14:44:55;3.00;;;2.45;;
15476;SDS011;7840;42.702;23.296;2023-03-12T14:47:23;2.35;;;2.15;;
15476;SDS011;7840;42.702;23.296;2023-03-12T14:49:50;3.47;;;2.43;;
15476;SDS011;7840;42.702;23.296;2023-03-12T14:52:23;2.30;;;2.10;;
15476;SDS011;7840;42.702;23.296;2023-03-12T14:54:57;2.77;;;2.10;;
15476;SDS011;7840;42.702;23.296;2023-03-12T14:57:25;3.23;;;2.10;;
15476;SDS011;7840;42.702;23.296;2023-03-12T14:59:54;2.60;;;2.10;;
15476;SDS011;7840;42.702;23.296;2023-03-12T15:02:21;2.70;;;2.30;;
15476;SDS011;7840;42.702;23.296;2023-03-12T15:04:50;2.20;;;2.00;;
15476;SDS011;7840;42.702;23.296;2023-03-12T15:07:20;3.03;;;2.40;;
15476;SDS011;7840;42.702;23.296;2023-03-12T15:09:50;1.92;;;1.83;;
15476;SDS011;7840;42.702;23.296;2023-03-12T15:12:19;2.00;;;1.80;;
15476;SDS011;7840;42.702;23.296;2023-03-12T15:14:48;2.40;;;2.20;;
15476;SDS011;7840;42.702;23.296;2023-03-12T15:17:17;2.50;;;2.10;;
15476;SDS011;7840;42.702;23.296;2023-03-12T15:19:45;2.30;;;2.10;;
15476;SDS011;7840;42.702;23.296;2023-03-12T15:22:14;2.22;;;2.00;;
15476;SDS011;7840;42.702;23.296;2023-03-12T15:24:42;2.08;;;1.80;;
15476;SDS011;7840;42.702;23.296;2023-03-12T15:33:21;1.98;;;1.80;;
15476;SDS011;7840;42.702;23.296;2023-03-12T15:35:57;2.40;;;2.20;;
15476;SDS011;7840;42.702;23.296;2023-03-12T15:41:07;2.38;;;2.17;;
15476;SDS011;7840;42.702;23.296;2023-03-12T15:43:34;4.18;;;2.13;;
15476;SDS011;7840;42.702;23.296;2023-03-12T15:46:03;2.87;;;2.57;;
15476;SDS011;7840;42.702;23.296;2023-03-12T15:48:34;3.07;;;2.77;;
15476;SDS011;7840;42.702;23.296;2023-03-12T15:51:02;3.83;;;2.97;;
15476;SDS011;7840;42.702;23.296;2023-03-12T15:53:37;2.90;;;2.50;;
15476;SDS011;7840;42.702;23.296;2023-03-12T15:56:06;3.27;;;2.60;;
15476;SDS011;7840;42.702;23.296;2023-03-12T15:59:18;3.17;;;2.60;;
15476;SDS011;7840;42.702;23.296;2023-03-12T16:02:02;4.60;;;2.83;;
15476;SDS011;7840;42.702;23.296;2023-03-12T16:04:31;2.80;;;2.60;;
15476;SDS011;7840;42.702;23.296;2023-03-12T16:06:58;3.30;;;2.67;;
15476;SDS011;7840;42.702;23.296;2023-03-12T16:09:26;5.27;;;3.17;;
15476;SDS011;7840;42.702;23.296;2023-03-12T16:11:55;4.10;;;2.80;;
15476;SDS011;7840;42.702;23.296;2023-03-12T16:14:31;4.50;;;2.90;;
15476;SDS011;7840;42.702;23.296;2023-03-12T16:17:02;4.77;;;4.20;;
15476;SDS011;7840;42.702;23.296;2023-03-12T16:25:00;6.23;;;5.47;;
15476;SDS011;7840;42.702;23.296;2023-03-12T16:27:29;5.07;;;3.37;;
15476;SDS011;7840;42.702;23.296;2023-03-12T16:30:03;3.77;;;2.80;;
15476;SDS011;7840;42.702;23.296;2023-03-12T16:33:11;3.20;;;2.90;;
15476;SDS011;7840;42.702;23.296;2023-03-12T16:35:39;3.33;;;2.90;;
15476;SDS011;7840;42.702;23.296;2023-03-12T16:38:06;4.67;;;3.07;;
15476;SDS011;7840;42.702;23.296;2023-03-12T16:43:23;4.03;;;3.10;;
15476;SDS011;7840;42.702;23.296;2023-03-12T16:45:54;4.33;;;3.33;;
15476;SDS011;7840;42.702;23.296;2023-03-12T16:48:41;3.97;;;3.33;;
15476;SDS011;7840;42.702;23.296;2023-03-12T16:51:11;4.10;;;3.00;;
15476;SDS011;7840;42.702;23.296;2023-03-12T16:53:39;4.60;;;3.43;;
15476;SDS011;7840;42.702;23.296;2023-03-12T16:56:10;3.43;;;3.13;;
15476;SDS011;7840;42.702;23.296;2023-03-12T16:58:42;3.63;;;3.30;;
15476;SDS011;7840;42.702;23.296;2023-03-12T17:01:12;3.67;;;3.27;;
15476;SDS011;7840;42.702;23.296;2023-03-12T17:03:41;5.87;;;3.40;;
15476;SDS011;7840;42.702;23.296;2023-03-12T17:06:19;4.20;;;3.60;;
15476;SDS011;7840;42.702;23.296;2023-03-12T17:11:37;9.43;;;6.73;;
15476;SDS011;7840;42.702;23.296;2023-03-12T17:14:31;5.70;;;3.83;;
15476;SDS011;7840;42.702;23.296;2023-03-12T17:17:00;6.10;;;4.50;;
15476;SDS011;7840;42.702;23.296;2023-03-12T17:19:30;5.70;;;4.57;;
15476;SDS011;7840;42.702;23.296;2023-03-12T17:22:03;5.07;;;4.20;;
15476;SDS011;7840;42.702;23.296;2023-03-12T17:24:47;7.03;;;4.90;;
15476;SDS011;7840;42.702;23.296;2023-03-12T17:27:28;8.90;;;5.70;;
15476;SDS011;7840;42.702;23.296;2023-03-12T17:30:00;5.70;;;3.13;;
15476;SDS011;7840;42.702;23.296;2023-03-12T17:32:40;4.37;;;3.57;;
15476;SDS011;7840;42.702;23.296;2023-03-12T17:35:07;4.73;;;4.30;;
15476;SDS011;7840;42.702;23.296;2023-03-12T17:37:37;4.23;;;3.83;;
15476;SDS011;7840;42.702;23.296;2023-03-12T17:40:05;4.43;;;3.63;;
15476;SDS011;7840;42.702;23.296;2023-03-12T17:42:47;4.87;;;3.70;;
15476;SDS011;7840;42.702;23.296;2023-03-12T17:45:20;7.73;;;3.77;;
15476;SDS011;7840;42.702;23.296;2023-03-12T17:48:01;4.93;;;3.60;;
15476;SDS011;7840;42.702;23.296;2023-03-12T17:50:29;6.17;;;4.30;;
15476;SDS011;7840;42.702;23.296;2023-03-12T17:52:56;4.83;;;4.33;;
15476;SDS011;7840;42.702;23.296;2023-03-12T17:55:29;6.67;;;4.70;;
15476;SDS011;7840;42.702;23.296;2023-03-12T17:58:02;5.37;;;4.47;;
15476;SDS011;7840;42.702;23.296;2023-03-12T18:03:28;7.30;;;5.27;;
15476;SDS011;7840;42.702;23.296;2023-03-12T18:05:56;6.03;;;5.17;;
15476;SDS011;7840;42.702;23.296;2023-03-12T18:08:40;6.17;;;4.10;;
15476;SDS011;7840;42.702;23.296;2023-03-12T18:11:07;5.43;;;4.37;;
15476;SDS011;7840;42.702;23.296;2023-03-12T18:13:35;7.57;;;5.30;;
15476;SDS011;7840;42.702;23.296;2023-03-12T18:16:16;6.80;;;5.37;;
15476;SDS011;7840;42.702;23.296;2023-03-12T18:18:47;9.33;;;5.80;;
15476;SDS011;7840;42.702;23.296;2023-03-12T18:21:28;7.53;;;5.63;;
15476;SDS011;7840;42.702;23.296;2023-03-12T18:23:55;7.83;;;5.60;;
15476;SDS011;7840;42.702;23.296;2023-03-12T18:26:23;7.30;;;5.70;;
15476;SDS011;7840;42.702;23.296;2023-03-12T18:29:08;6.77;;;5.10;;
15476;SDS011;7840;42.702;23.296;2023-03-12T18:31:35;5.97;;;4.53;;
15476;SDS011;7840;42.702;23.296;2023-03-12T18:36:34;8.77;;;4.53;;
15476;SDS011;7840;42.702;23.296;2023-03-12T18:39:02;9.43;;;5.73;;
15476;SDS011;7840;42.702;23.296;2023-03-12T18:41:30;7.63;;;5.83;;
15476;SDS011;7840;42.702;23.296;2023-03-12T18:43:58;8.27;;;5.90;;
15476;SDS011;7840;42.702;23.296;2023-03-12T18:46:25;9.07;;;5.80;;
15476;SDS011;7840;42.702;23.296;2023-03-12T18:48:54;6.77;;;5.20;;
15476;SDS011;7840;42.702;23.296;2023-03-12T18:51:23;5.70;;;5.13;;
15476;SDS011;7840;42.702;23.296;2023-03-12T18:53:52;8.30;;;4.77;;
15476;SDS011;7840;42.702;23.296;2023-03-12T18:56:20;6.03;;;4.77;;
15476;SDS011;7840;42.702;23.296;2023-03-12T18:59:04;7.03;;;5.20;;
15476;SDS011;7840;42.702;23.296;2023-03-12T19:01:58;8.07;;;5.37;;
15476;SDS011;7840;42.702;23.296;2023-03-12T19:19:20;8.37;;;6.03;;
15476;SDS011;7840;42.702;23.296;2023-03-12T19:21:49;9.00;;;5.20;;
15476;SDS011;7840;42.702;23.296;2023-03-12T19:24:16;7.17;;;5.23;;
15476;SDS011;7840;42.702;23.296;2023-03-12T19:26:45;8.63;;;5.53;;
15476;SDS011;7840;42.702;23.296;2023-03-12T19:29:26;9.40;;;5.27;;
15476;SDS011;7840;42.702;23.296;2023-03-12T19:31:53;12.37;;;6.37;;
15476;SDS011;7840;42.702;23.296;2023-03-12T19:34:22;15.63;;;7.67;;
15476;SDS011;7840;42.702;23.296;2023-03-12T19:36:52;13.20;;;7.50;;
15476;SDS011;7840;42.702;23.296;2023-03-12T19:39:20;12.83;;;9.07;;
15476;SDS011;7840;42.702;23.296;2023-03-12T19:41:48;15.77;;;9.87;;
15476;SDS011;7840;42.702;23.296;2023-03-12T19:44:15;11.30;;;8.43;;
15476;SDS011;7840;42.702;23.296;2023-03-12T19:46:56;14.73;;;9.70;;
15476;SDS011;7840;42.702;23.296;2023-03-12T19:49:28;14.60;;;10.57;;
15476;SDS011;7840;42.702;23.296;2023-03-12T19:52:10;15.13;;;9.73;;
15476;SDS011;7840;42.702;23.296;2023-03-12T19:54:52;17.73;;;10.87;;
15476;SDS011;7840;42.702;23.296;2023-03-12T19:57:33;18.80;;;10.70;;
15476;SDS011;7840;42.702;23.296;2023-03-12T20:00:00;15.17;;;10.23;;
15476;SDS011;7840;42.702;23.296;2023-03-12T20:05:07;16.70;;;8.90;;
15476;SDS011;7840;42.702;23.296;2023-03-12T20:07:45;15.07;;;9.07;;
15476;SDS011;7840;42.702;23.296;2023-03-12T20:10:26;13.47;;;9.13;;
15476;SDS011;7840;42.702;23.296;2023-03-12T20:13:15;15.70;;;8.50;;
15476;SDS011;7840;42.702;23.296;2023-03-12T20:15:43;15.20;;;8.73;;
15476;SDS011;7840;42.702;23.296;2023-03-12T20:18:11;13.00;;;8.93;;
15476;SDS011;7840;42.702;23.296;2023-03-12T20:20:47;12.40;;;8.20;;
15476;SDS011;7840;42.702;23.296;2023-03-12T20:23:17;13.43;;;8.63;;
15476;SDS011;7840;42.702;23.296;2023-03-12T20:25:46;12.10;;;7.87;;
15476;SDS011;7840;42.702;23.296;2023-03-12T20:28:39;18.33;;;8.40;;
15476;SDS011;7840;42.702;23.296;2023-03-12T20:31:20;9.57;;;7.57;;
15476;SDS011;7840;42.702;23.296;2023-03-12T20:34:02;11.53;;;7.27;;
15476;SDS011;7840;42.702;23.296;2023-03-12T20:36:31;11.93;;;8.23;;
15476;SDS011;7840;42.702;23.296;2023-03-12T20:38:59;10.47;;;7.87;;
15476;SDS011;7840;42.702;23.296;2023-03-12T20:41:26;9.43;;;7.13;;
15476;SDS011;7840;42.702;23.296;2023-03-12T20:43:55;11.87;;;8.00;;
15476;SDS011;7840;42.702;23.296;2023-03-12T20:49:06;13.07;;;6.87;;
15476;SDS011;7840;42.702;23.296;2023-03-12T20:51:43;10.60;;;6.93;;
15476;SDS011;7840;42.702;23.296;2023-03-12T20:54:11;10.70;;;6.90;;
15476;SDS011;7840;42.702;23.296;2023-03-12T20:56:38;12.30;;;7.20;;
15476;SDS011;7840;42.702;23.296;2023-03-12T20:59:19;11.50;;;6.70;;
15476;SDS011;7840;42.702;23.296;2023-03-12T21:02:01;9.53;;;6.47;;
15476;SDS011;7840;42.702;23.296;2023-03-12T21:04:43;10.03;;;6.70;;
15476;SDS011;7840;42.702;23.296;2023-03-12T21:10:14;8.50;;;5.93;;
15476;SDS011;7840;42.702;23.296;2023-03-12T21:12:55;7.40;;;5.80;;
15476;SDS011;7840;42.702;23.296;2023-03-12T21:18:32;9.20;;;5.97;;
15476;SDS011;7840;42.702;23.296;2023-03-12T21:21:04;9.30;;;5.93;;
15476;SDS011;7840;42.702;23.296;2023-03-12T21:23:45;7.53;;;5.10;;
15476;SDS011;7840;42.702;23.296;2023-03-12T21:44:15;4.93;;;4.43;;
15476;SDS011;7840;42.702;23.296;2023-03-12T21:46:43;6.33;;;4.43;;
15476;SDS011;7840;42.702;23.296;2023-03-12T21:49:24;4.80;;;4.00;;
15476;SDS011;7840;42.702;23.296;2023-03-12T21:51:54;5.43;;;4.27;;
15476;SDS011;7840;42.702;23.296;2023-03-12T21:54:50;6.13;;;4.10;;
15476;SDS011;7840;42.702;23.296;2023-03-12T21:57:39;5.83;;;4.20;;
15476;SDS011;7840;42.702;23.296;2023-03-12T22:03:04;4.97;;;4.40;;
15476;SDS011;7840;42.702;23.296;2023-03-12T22:05:31;4.47;;;4.07;;
15476;SDS011;7840;42.702;23.296;2023-03-12T22:07:59;4.97;;;4.03;;
15476;SDS011;7840;42.702;23.296;2023-03-12T22:10:26;4.47;;;3.70;;
15476;SDS011;7840;42.702;23.296;2023-03-12T22:12:54;8.47;;;4.50;;
15476;SDS011;7840;42.702;23.296;2023-03-12T22:15:27;5.07;;;4.47;;
15476;SDS011;7840;42.702;23.296;2023-03-12T22:18:11;5.80;;;4.67;;
15476;SDS011;7840;42.702;23.296;2023-03-12T22:20:38;7.20;;;5.90;;
15476;SDS011;7840;42.702;23.296;2023-03-12T22:23:05;7.50;;;6.00;;
15476;SDS011;7840;42.702;23.296;2023-03-12T22:25:33;6.77;;;6.07;;
15476;SDS011;7840;42.702;23.296;2023-03-12T22:28:00;8.00;;;6.00;;
15476;SDS011;7840;42.702;23.296;2023-03-12T22:30:41;6.60;;;5.80;;
15476;SDS011;7840;42.702;23.296;2023-03-12T22:33:09;6.50;;;5.77;;
15476;SDS011;7840;42.702;23.296;2023-03-12T22:41:20;5.40;;;4.43;;
15476;SDS011;7840;42.702;23.296;2023-03-12T22:43:48;5.43;;;4.60;;
15476;SDS011;7840;42.702;23.296;2023-03-12T22:46:16;4.87;;;4.43;;
15476;SDS011;7840;42.702;23.296;2023-03-12T22:48:45;4.87;;;4.20;;
15476;SDS011;7840;42.702;23.296;2023-03-12T22:51:45;5.37;;;4.43;;
15476;SDS011;7840;42.702;23.296;2023-03-12T22:54:49;4.37;;;3.90;;
15476;SDS011;7840;42.702;23.296;2023-03-12T22:57:46;5.00;;;4.47;;
15476;SDS011;7840;42.702;23.296;2023-03-12T23:00:14;5.83;;;4.70;;
15476;SDS011;7840;42.702;23.296;2023-03-12T23:03:09;5.53;;;4.50;;
15476;SDS011;7840;42.702;23.296;2023-03-12T23:05:36;6.77;;;4.80;;
15476;SDS011;7840;42.702;23.296;2023-03-12T23:08:04;5.27;;;4.70;;
15476;SDS011;7840;42.702;23.296;2023-03-12T23:10:31;5.40;;;4.90;;
15476;SDS011;7840;42.702;23.296;2023-03-12T23:13:17;5.40;;;4.87;;
15476;SDS011;7840;42.702;23.296;2023-03-12T23:15:44;8.10;;;4.60;;
15476;SDS011;7840;42.702;23.296;2023-03-12T23:18:12;6.20;;;4.73;;
15476;SDS011;7840;42.702;23.296;2023-03-12T23:20:39;5.80;;;5.00;;
15476;SDS011;7840;42.702;23.296;2023-03-12T23:23:07;5.67;;;4.87;;
15476;SDS011;7840;42.702;23.296;2023-03-12T23:25:34;5.43;;;4.90;;
15476;SDS011;7840;42.702;23.296;2023-03-12T23:28:02;5.10;;;4.40;;
15476;SDS011;7840;42.702;23.296;2023-03-12T23:30:34;5.60;;;4.83;;
